Time;durP1;ratioP1;P1;durP2;ratioP2;P2;SDS_P1;SDS_P2;PMS_P1;PMS_P2;Temp;Humidity;BMP_temperature;BMP_pressure;BME280_temperature;BME280_humidity;BME280_pressure;Samples;Min_cycle;Max_cycle;Signal;HPM_P1;HPM_P2
2022/12/17 13:08:18;;;;;;;54.25;25.98;;;;;;;;;;5047183;28;20033;-85
2022/12/17 13:10:44;;;;;;;62.47;29.10;;;;;;;;;;5045960;28;20037;-85
2022/12/17 13:13:21;;;;;;;55.25;26.15;;;;;;;;;;5062442;28;20300;-84
2022/12/17 13:15:50;;;;;;;55.22;25.13;;;;;;;;;;5032116;28;20045;-83
2022/12/17 13:18:35;;;;;;;52.58;24.13;;;;;;;;;;5043033;28;20545;-84
2022/12/17 13:21:03;;;;;;;51.17;23.38;;;;;;;;;;5016586;28;20112;-85
2022/12/17 13:23:36;;;;;;;53.92;25.08;;;;;;;;;;5024691;28;20041;-85
2022/12/17 13:26:22;;;;;;;52.70;24.08;;;;;;;;;;5034509;28;20556;-86
2022/12/17 13:28:56;;;;;;;52.97;24.65;;;;;;;;;;5029220;28;20627;-84
2022/12/17 13:31:25;;;;;;;53.80;26.33;;;;;;;;;;5064879;28;20041;-85
2022/12/17 13:34:10;;;;;;;54.58;25.58;;;;;;;;;;5046908;28;20042;-85
2022/12/17 13:36:47;;;;;;;53.72;25.80;;;;;;;;;;5046844;28;20394;-85
2022/12/17 13:39:23;;;;;;;59.72;26.83;;;;;;;;;;5047637;28;20105;-84
2022/12/17 13:41:51;;;;;;;51.40;25.00;;;;;;;;;;5040507;28;20083;-84
2022/12/17 13:44:20;;;;;;;50.13;25.15;;;;;;;;;;5042131;28;20038;-84
2022/12/17 13:46:47;;;;;;;51.22;24.42;;;;;;;;;;5037725;28;20079;-85
2022/12/17 13:49:17;;;;;;;51.90;23.95;;;;;;;;;;5031472;28;20030;-84
2022/12/17 13:51:42;;;;;;;42.72;21.65;;;;;;;;;;5032209;28;20049;-84
2022/12/17 13:54:14;;;;;;;39.83;20.97;;;;;;;;;;5030880;28;20092;-84
2022/12/17 13:56:40;;;;;;;58.53;26.45;;;;;;;;;;5033036;28;20277;-83
2022/12/17 13:59:05;;;;;;;51.38;24.88;;;;;;;;;;5049666;28;20045;-84
2022/12/17 14:01:31;;;;;;;45.97;23.90;;;;;;;;;;5025560;28;20038;-84
2022/12/17 14:03:57;;;;;;;45.45;22.20;;;;;;;;;;5034734;28;20526;-83
2022/12/17 14:06:23;;;;;;;39.55;20.50;;;;;;;;;;5033478;28;20060;-84
2022/12/17 14:08:50;;;;;;;45.20;21.70;;;;;;;;;;5035361;28;20538;-85
2022/12/17 14:13:59;;;;;;;52.33;25.10;;;;;;;;;;5033658;28;20548;-83
2022/12/17 14:16:24;;;;;;;53.72;25.63;;;;;;;;;;5034221;28;20120;-83
2022/12/17 14:18:51;;;;;;;59.67;25.73;;;;;;;;;;5032014;28;20542;-83
2022/12/17 14:21:16;;;;;;;42.60;21.00;;;;;;;;;;5034439;28;20041;-85
2022/12/17 14:23:42;;;;;;;49.30;24.02;;;;;;;;;;5034893;28;20372;-84
2022/12/17 14:26:11;;;;;;;40.63;21.20;;;;;;;;;;5034775;28;20477;-84
2022/12/17 14:28:46;;;;;;;44.00;20.55;;;;;;;;;;5035145;28;20033;-85
2022/12/17 14:31:18;;;;;;;43.53;20.35;;;;;;;;;;5033218;28;20044;-85
2022/12/17 14:33:44;;;;;;;41.33;21.05;;;;;;;;;;5036327;28;20047;-85
2022/12/17 14:36:15;;;;;;;40.22;19.48;;;;;;;;;;5034321;28;20101;-85
2022/12/17 14:38:50;;;;;;;36.22;17.90;;;;;;;;;;5033914;28;20025;-83
2022/12/17 14:44:00;;;;;;;53.25;25.65;;;;;;;;;;5032831;28;20517;-84
2022/12/17 14:46:29;;;;;;;50.72;24.15;;;;;;;;;;5032868;28;20036;-85
2022/12/17 14:48:59;;;;;;;48.17;23.73;;;;;;;;;;5032540;28;20030;-83
2022/12/17 14:51:33;;;;;;;54.17;25.23;;;;;;;;;;5031351;28;20041;-85
2022/12/17 14:54:05;;;;;;;61.08;27.90;;;;;;;;;;5033698;28;20099;-85
2022/12/17 14:56:30;;;;;;;56.28;25.90;;;;;;;;;;5031594;28;20060;-85
2022/12/17 14:58:55;;;;;;;48.00;23.83;;;;;;;;;;5031955;28;20057;-84
2022/12/17 15:01:20;;;;;;;57.20;25.60;;;;;;;;;;5034329;28;20110;-83
2022/12/17 15:03:46;;;;;;;49.92;24.20;;;;;;;;;;5036781;28;20046;-83
2022/12/17 15:06:14;;;;;;;51.13;24.25;;;;;;;;;;5031628;28;20033;-83
2022/12/17 15:08:40;;;;;;;45.30;21.80;;;;;;;;;;5030785;28;20044;-83
2022/12/17 15:11:06;;;;;;;44.42;21.50;;;;;;;22.38;100.00;120338.78;5034602;28;20045;-83
2022/12/17 15:13:31;;;;;;;67.82;25.50;;;;;;;;;;5035864;28;20030;-84
2022/12/17 15:15:56;;;;;;;49.97;23.70;;;;;;;;;;5032699;28;20049;-84
2022/12/17 15:18:21;;;;;;;49.33;24.00;;;;;;;;;;5032896;28;20647;-83
2022/12/17 15:20:47;;;;;;;44.40;22.47;;;;;;;;;;5041127;28;20041;-83
2022/12/17 15:23:14;;;;;;;41.03;20.10;;;;;;;;;;5057160;28;20821;-84
2022/12/17 15:25:39;;;;;;;45.35;22.88;;;;;;;;;;5057197;28;20037;-83
2022/12/17 15:28:04;;;;;;;41.53;19.97;;;;;;;;;;5033246;28;20034;-84
2022/12/17 15:30:29;;;;;;;46.53;23.90;;;;;;;;;;5015061;28;20038;-84
2022/12/17 15:32:54;;;;;;;48.72;23.48;;;;;;;;;;5017690;28;20277;-84
2022/12/17 15:35:20;;;;;;;51.37;24.40;;;;;;;;;;5044381;28;20056;-86
2022/12/17 15:37:45;;;;;;;45.95;22.85;;;;;;;;;;5016665;28;20293;-86
2022/12/17 15:40:10;;;;;;;51.93;23.43;;;;;;;;;;5044888;28;20690;-84
2022/12/17 15:45:20;;;;;;;49.33;24.13;;;;;;;;;;5032305;28;20052;-85
2022/12/17 15:47:45;;;;;;;140.13;31.23;;;;;;;;;;5030307;28;20041;-84
2022/12/17 15:50:10;;;;;;;41.63;21.23;;;;;;;;;;5028867;28;20103;-86
2022/12/17 15:52:35;;;;;;;50.35;23.40;;;;;;;;;;5030398;28;20356;-84
2022/12/17 15:55:00;;;;;;;46.40;20.67;;;;;;;;;;5031955;28;20060;-86
2022/12/17 15:57:26;;;;;;;43.42;20.95;;;;;;;;;;5045580;28;20061;-85
2022/12/17 15:59:51;;;;;;;49.33;22.90;;;;;;;;;;5030388;28;20394;-84
2022/12/17 16:02:16;;;;;;;47.53;23.87;;;;;;;;;;5019107;28;20084;-84
2022/12/17 16:04:41;;;;;;;55.00;26.37;;;;;;;;;;5011235;28;20689;-84
2022/12/17 16:07:07;;;;;;;56.75;25.17;;;;;;;;;;5012828;28;20269;-86
2022/12/17 16:09:32;;;;;;;49.63;22.40;;;;;;;;;;5012312;28;20067;-84
2022/12/17 16:11:57;;;;;;;42.63;21.97;;;;;;;;;;5010992;28;20034;-85
2022/12/17 16:14:23;;;;;;;47.13;24.43;;;;;;;;;;5011113;28;20033;-84
2022/12/17 16:16:49;;;;;;;48.10;24.73;;;;;;;;;;5019141;28;20037;-85
2022/12/17 16:19:14;;;;;;;51.40;25.83;;;;;;;;;;5031271;28;20120;-85
2022/12/17 16:21:39;;;;;;;53.27;25.03;;;;;;;;;;5033113;28;20609;-85
2022/12/17 16:24:04;;;;;;;60.28;27.67;;;;;;;;;;5032558;28;20801;-86
2022/12/17 16:26:30;;;;;;;58.05;26.85;;;;;;;;;;5030542;28;20033;-84
2022/12/17 16:28:56;;;;;;;56.00;25.98;;;;;;;;;;5030784;28;20391;-84
2022/12/17 16:31:21;;;;;;;99.82;30.92;;;;;;;;;;5034005;28;20045;-85
2022/12/17 16:33:47;;;;;;;74.83;28.40;;;;;;;;;;5032571;28;20541;-84
2022/12/17 16:36:14;;;;;;;51.40;25.05;;;;;;;;;;5029339;28;20034;-84
2022/12/17 16:38:44;;;;;;;58.50;26.75;;;;;;;;;;5030859;28;20033;-84
2022/12/17 16:41:09;;;;;;;60.08;29.17;;;;;;;;;;5029482;28;20029;-83
2022/12/17 16:43:34;;;;;;;55.50;26.33;;;;;;;;;;5038211;28;20048;-83
2022/12/17 16:46:00;;;;;;;58.63;26.87;;;;;;;;;;5047622;28;20465;-84
2022/12/17 16:48:25;;;;;;;54.38;25.98;;;;;;;;;;5047556;28;20260;-84
2022/12/17 16:50:50;;;;;;;55.03;26.25;;;;;;;;;;5028605;28;20151;-85
2022/12/17 16:53:16;;;;;;;54.90;25.73;;;;;;;;;;5040971;28;20159;-84
2022/12/17 16:55:42;;;;;;;65.80;28.65;;;;;;;;;;5036961;28;20045;-84
2022/12/17 16:58:07;;;;;;;64.25;27.13;;;;;;;;;;5033271;28;20148;-84
2022/12/17 17:00:33;;;;;;;51.03;24.05;;;;;;;;;;5043051;28;20093;-85
2022/12/17 17:02:58;;;;;;;48.38;23.08;;;;;;;;;;5059424;28;20497;-85
2022/12/17 17:05:23;;;;;;;57.43;25.20;;;;;;;;;;5053697;28;20045;-84
2022/12/17 17:07:49;;;;;;;57.07;26.03;;;;;;;;;;5049695;28;20064;-86
2022/12/17 17:10:14;;;;;;;47.53;22.58;;;;;;;;;;5067328;28;20059;-85
2022/12/17 17:12:39;;;;;;;46.72;21.38;;;;;;;;;;5052555;28;20445;-85
2022/12/17 17:15:06;;;;;;;50.80;24.55;;;;;;;;;;5071688;28;20060;-85
2022/12/17 17:17:31;;;;;;;61.13;28.15;;;;;;;;;;5068082;28;20124;-85
2022/12/17 17:19:56;;;;;;;60.93;26.50;;;;;;;;;;5067246;28;20377;-84
2022/12/17 17:22:21;;;;;;;47.13;23.00;;;;;;;;;;5053459;28;20062;-86
2022/12/17 17:24:47;;;;;;;54.80;24.17;;;;;;;;;;5052668;28;20360;-85
2022/12/17 17:27:12;;;;;;;62.85;26.13;;;;;;;;;;5041233;28;20315;-86
2022/12/17 17:29:37;;;;;;;57.70;24.73;;;;;;;-140.05;100.00;159897.03;5070924;28;20041;-85
2022/12/17 17:32:02;;;;;;;60.90;26.58;;;;;;;;;;5058423;28;20288;-85
2022/12/17 17:34:27;;;;;;;57.58;27.60;;;;;;;;;;5055988;28;20060;-86
2022/12/17 17:36:53;;;;;;;63.77;28.63;;;;;;;;;;5049287;28;20531;-86
2022/12/17 17:39:18;;;;;;;88.63;28.77;;;;;;;;;;5047604;28;20382;-85
2022/12/17 17:41:43;;;;;;;53.60;24.40;;;;;;;;;;5058562;28;20315;-85
2022/12/17 17:44:12;;;;;;;50.50;23.47;;;;;;;;;;5055176;28;20021;-85
2022/12/17 17:46:37;;;;;;;52.08;23.98;;;;;;;;;;5059910;28;20291;-86
2022/12/17 17:49:03;;;;;;;51.78;26.05;;;;;;;;;;5083350;28;20100;-86
2022/12/17 17:51:30;;;;;;;54.08;26.05;;;;;;;;;;5070687;28;20043;-84
2022/12/17 17:53:55;;;;;;;49.83;23.63;;;;;;;;;;5052396;28;20112;-85
2022/12/17 17:56:22;;;;;;;49.85;22.77;;;;;;;;;;5057507;28;20087;-85
2022/12/17 17:58:52;;;;;;;41.85;20.88;;;;;;;;;;5082026;28;20092;-84
2022/12/17 18:01:28;;;;;;;54.20;25.13;;;;;;;;;;5067397;28;20056;-84
2022/12/17 18:03:57;;;;;;;51.67;23.65;;;;;;;;;;5068562;28;20453;-86
2022/12/17 18:06:22;;;;;;;46.10;21.90;;;;;;;;;;5060201;28;20041;-84
2022/12/17 18:08:47;;;;;;;47.60;22.92;;;;;;;;;;5056639;28;20033;-86
2022/12/17 18:11:15;;;;;;;52.42;23.33;;;;;;;;;;5053295;28;20041;-85
2022/12/17 18:13:55;;;;;;;50.00;23.75;;;;;;;;;;5047858;28;20072;-85
2022/12/17 18:16:20;;;;;;;;;;;;;;;;;;5049540;28;20129;-84
2022/12/17 18:18:46;;;;;;;57.13;25.20;;;;;;;;;;5070948;28;19983;-84
2022/12/17 18:21:12;;;;;;;65.45;28.98;;;;;;;;;;5057559;28;20040;-85
2022/12/17 18:23:38;;;;;;;64.32;28.10;;;;;;;;;;5088865;28;20037;-84
2022/12/17 18:26:16;;;;;;;61.50;27.40;;;;;;;;;;5053842;28;20065;-85
2022/12/17 18:28:42;;;;;;;53.72;25.20;;;;;;;;;;5052724;28;20044;-85
2022/12/17 18:31:15;;;;;;;55.50;25.80;;;;;;;;;;5053366;28;20042;-85
2022/12/17 18:33:43;;;;;;;67.53;30.15;;;;;;;;;;5054469;28;20037;-86
2022/12/17 18:36:09;;;;;;;49.72;25.30;;;;;;;;;;5052756;28;20101;-84
2022/12/17 18:38:34;;;;;;;51.72;23.70;;;;;;;;;;5046015;28;20047;-87
2022/12/17 18:43:21;;;;;;;62.83;28.08;;;;;;;;;;5053412;28;20133;-85
2022/12/17 18:43:52;;;;;;;62.35;29.40;;;;;;;;;;5057668;28;20033;-85
2022/12/17 18:46:17;;;;;;;54.17;25.60;;;;;;;;;;5053302;28;20040;-85
2022/12/17 18:48:42;;;;;;;57.88;27.23;;;;;;;;;;5064358;28;20274;-85
2022/12/17 18:51:07;;;;;;;63.13;29.33;;;;;;;;;;5054805;28;20055;-85
2022/12/17 18:53:33;;;;;;;59.77;28.70;;;;;;;;;;5070300;28;20033;-85
2022/12/17 18:56:04;;;;;;;59.08;26.92;;;;;;;;;;5052741;28;20048;-84
2022/12/17 18:58:30;;;;;;;60.65;27.73;;;;;;;;;;5068814;28;20036;-85
2022/12/17 19:00:55;;;;;;;68.72;29.92;;;;;;;;;;5056197;28;20032;-86
2022/12/17 19:03:20;;;;;;;57.40;26.63;;;;;;;;;;5052819;28;20111;-84
2022/12/17 19:05:45;;;;;;;55.70;26.60;;;;;;;;;;5052966;28;20287;-85
2022/12/17 19:08:10;;;;;;;56.40;26.83;;;;;;;;;;5050861;28;20051;-84
2022/12/17 19:10:37;;;;;;;60.00;28.43;;;;;;;;;;5052221;28;20108;-86
2022/12/17 19:13:02;;;;;;;57.70;27.17;;;;;;;;;;5050819;28;20029;-85
2022/12/17 19:15:28;;;;;;;62.47;27.23;;;;;;;;;;5053052;28;20043;-85
2022/12/17 19:17:53;;;;;;;60.80;28.13;;;;;;;;;;5051931;28;20919;-85
2022/12/17 19:20:18;;;;;;;64.60;30.77;;;;;;;;;;5054509;28;20048;-86
2022/12/17 19:22:43;;;;;;;61.58;28.00;;;;;;;;;;5048725;28;20441;-84
2022/12/17 19:25:09;;;;;;;70.93;31.97;;;;;;;;;;5051211;28;20040;-85
2022/12/17 19:27:34;;;;;;;65.15;29.33;;;;;;;;;;5037413;28;20037;-85
2022/12/17 19:29:59;;;;;;;57.90;27.03;;;;;;;;;;5088301;28;20049;-85
2022/12/17 19:32:24;;;;;;;61.70;27.55;;;;;;;22.39;100.00;120313.59;5059122;28;20075;-85
2022/12/17 19:34:50;;;;;;;72.03;28.80;;;;;;;;;;5054425;28;20047;-85
2022/12/17 19:37:15;;;;;;;67.77;27.30;;;;;;;;;;5054832;28;20076;-85
2022/12/17 19:39:41;;;;;;;62.45;28.17;;;;;;;;;;5052113;28;20286;-84
2022/12/17 19:42:23;;;;;;;76.80;28.17;;;;;;;;;;5052424;28;20072;-84
2022/12/17 19:44:48;;;;;;;81.38;30.15;;;;;;;;;;5051472;28;20529;-85
2022/12/17 19:47:13;;;;;;;61.30;28.17;;;;;;;;;;5054169;28;20045;-87
2022/12/17 19:49:38;;;;;;;55.57;25.73;;;;;;;;;;5052001;28;20318;-84
2022/12/17 19:52:03;;;;;;;60.53;27.03;;;;;;;;;;5069345;28;20029;-84
2022/12/17 19:54:29;;;;;;;61.97;28.05;;;;;;;;;;5050077;28;20040;-84
2022/12/17 19:56:54;;;;;;;66.70;28.30;;;;;;;;;;5052617;28;20497;-84
2022/12/17 19:59:19;;;;;;;54.95;24.40;;;;;;;;;;5042009;28;20032;-84
2022/12/17 20:01:45;;;;;;;69.17;30.27;;;;;;;;;;5051429;28;20315;-84
2022/12/17 20:04:11;;;;;;;57.45;24.75;;;;;;;;;;5050823;28;20387;-84
2022/12/17 20:06:36;;;;;;;52.72;24.05;;;;;;;;;;5051355;28;20167;-84
2022/12/17 20:09:03;;;;;;;64.77;28.43;;;;;;;;;;5053140;28;20036;-84
2022/12/17 20:11:34;;;;;;;54.25;23.40;;;;;;;;;;5052502;28;20650;-84
2022/12/17 20:14:16;;;;;;;56.88;25.48;;;;;;;;;;5066461;28;20045;-84
2022/12/17 20:16:42;;;;;;;59.55;26.00;;;;;;;;;;5059159;28;20033;-84
2022/12/17 20:19:10;;;;;;;59.03;26.98;;;;;;;;;;5056394;28;20053;-84
2022/12/17 20:21:36;;;;;;;49.70;23.95;;;;;;;;;;5047257;28;20037;-85
2022/12/17 20:24:01;;;;;;;59.53;26.95;;;;;;;;;;5055786;28;20095;-84
2022/12/17 20:26:29;;;;;;;54.93;24.57;;;;;;;;;;5066530;28;20059;-86
2022/12/17 20:28:55;;;;;;;57.38;25.38;;;;;;;;;;5068197;28;20290;-85
2022/12/17 20:31:20;;;;;;;62.45;27.38;;;;;;;;;;5068936;28;20105;-85
2022/12/17 20:33:45;;;;;;;65.17;26.97;;;;;;;;;;5074427;28;20040;-85
2022/12/17 20:36:13;;;;;;;60.30;27.67;;;;;;;;;;5055121;28;20311;-85
2022/12/17 20:38:39;;;;;;;64.20;27.17;;;;;;;22.42;100.00;159851.34;5078219;28;20021;-85
2022/12/17 20:41:08;;;;;;;64.38;28.83;;;;;;;;;;5068669;28;20017;-84
2022/12/17 20:43:34;;;;;;;62.53;30.05;;;;;;;;;;5097207;28;20051;-85
2022/12/17 20:45:59;;;;;;;67.27;29.67;;;;;;;;;;5058483;28;20064;-84
2022/12/17 20:48:25;;;;;;;59.58;28.05;;;;;;;;;;5072106;28;20284;-84
2022/12/17 20:50:50;;;;;;;92.83;32.27;;;;;;;;;;5069341;28;20096;-85
2022/12/17 20:53:19;;;;;;;82.97;28.73;;;;;;;;;;5076310;28;20033;-84
2022/12/17 20:55:44;;;;;;;67.30;26.98;;;;;;;;;;5073462;28;20036;-85
2022/12/17 20:58:12;;;;;;;60.85;26.63;;;;;;;;;;5082792;28;20056;-85
2022/12/17 21:00:37;;;;;;;64.78;29.42;;;;;;;;;;5062687;28;20021;-84
2022/12/17 21:03:02;;;;;;;65.03;26.83;;;;;;;;;;5073891;28;20044;-85
2022/12/17 21:05:28;;;;;;;141.57;34.33;;;;;;;-145.28;100.00;66529.94;5086652;28;20033;-85
2022/12/17 21:07:53;;;;;;;67.07;28.70;;;;;;;;;;5103379;28;20063;-85
2022/12/17 21:10:18;;;;;;;67.13;28.83;;;;;;;;;;5072224;28;20044;-84
2022/12/17 21:15:27;;;;;;;60.13;25.30;;;;;;;;;;5052546;28;20121;-83
2022/12/17 21:17:53;;;;;;;67.13;27.05;;;;;;;;;;5058683;28;20033;-84
2022/12/17 21:20:18;;;;;;;64.57;27.75;;;;;;;;;;5091127;28;20045;-83
2022/12/17 21:22:43;;;;;;;63.97;27.37;;;;;;;;;;5085966;28;20037;-83
2022/12/17 21:25:08;;;;;;;54.13;25.37;;;;;;;;;;5092130;28;20260;-82
2022/12/17 21:27:34;;;;;;;59.53;27.55;;;;;;;;;;5080648;28;20036;-83
2022/12/17 21:29:59;;;;;;;72.00;28.70;;;;;;;;;;5054503;28;20121;-84
2022/12/17 21:32:24;;;;;;;59.92;25.30;;;;;;;;;;5064343;28;20025;-85
2022/12/17 21:34:49;;;;;;;59.57;25.73;;;;;;;;;;5067943;28;20109;-85
2022/12/17 21:37:15;;;;;;;58.83;25.73;;;;;;;;;;5083264;28;20049;-85
2022/12/17 21:39:40;;;;;;;56.20;24.57;;;;;;;;;;5070521;28;20037;-85
2022/12/17 21:44:49;;;;;;;64.55;28.35;;;;;;;;;;5044827;28;20840;-85
2022/12/17 21:47:14;;;;;;;59.97;26.33;;;;;;;;;;5052355;28;20124;-83
2022/12/17 21:49:39;;;;;;;73.80;30.67;;;;;;;;;;5054342;28;20115;-84
2022/12/17 21:52:04;;;;;;;64.47;28.07;;;;;;;;;;5084516;28;20105;-84
2022/12/17 21:54:30;;;;;;;88.80;35.20;;;;;;;;;;5059612;28;20263;-84
2022/12/17 21:56:55;;;;;;;65.20;28.75;;;;;;;;;;5084959;28;20041;-84
2022/12/17 21:59:20;;;;;;;74.10;31.63;;;;;;;;;;5072696;28;20037;-85
2022/12/17 22:01:45;;;;;;;78.80;32.00;;;;;;;;;;5043759;28;20037;-84
2022/12/17 22:04:11;;;;;;;66.70;29.73;;;;;;;;;;5053700;28;20190;-84
2022/12/17 22:06:39;;;;;;;73.97;31.33;;;;;;;;;;5052311;28;20037;-84
2022/12/17 22:09:05;;;;;;;69.07;30.70;;;;;;;;;;5063984;28;20412;-84
2022/12/17 22:11:30;;;;;;;75.93;31.63;;;;;;;;;;5048565;28;20057;-84
2022/12/17 22:14:01;;;;;;;82.37;33.40;;;;;;;;;;5051959;28;20032;-85
2022/12/17 22:16:30;;;;;;;69.13;30.27;;;;;;;;;;5064751;28;20110;-85
2022/12/17 22:18:57;;;;;;;72.07;29.23;;;;;;;;;;5047366;28;20123;-85
2022/12/17 22:21:23;;;;;;;69.50;27.92;;;;;;;;;;5063845;28;20041;-85
2022/12/17 22:23:48;;;;;;;75.43;31.60;;;;;;;-145.28;100.00;87220.34;5053761;28;20129;-85
2022/12/17 22:26:15;;;;;;;76.07;30.08;;;;;;;;;;5052572;28;20069;-84
2022/12/17 22:28:42;;;;;;;65.38;27.13;;;;;;;22.39;100.00;65942.44;5053263;28;20033;-85
2022/12/17 22:33:53;;;;;;;60.00;26.15;;;;;;;;;;5046837;28;20052;-85
2022/12/17 22:36:18;;;;;;;73.93;27.83;;;;;;;;;;5052226;28;20406;-85
2022/12/17 22:38:43;;;;;;;69.43;29.53;;;;;;;;;;5051796;28;20035;-85
2022/12/17 22:43:28;;;;;;;60.40;25.83;;;;;;;22.38;100.00;54041.97;5052443;28;20502;-87
2022/12/17 22:43:53;;;;;;;65.93;26.70;;;;;;;;;;5055384;28;20208;-84
2022/12/17 22:46:18;;;;;;;69.93;28.23;;;;;;;;;;5068661;28;20119;-86
2022/12/17 22:48:44;;;;;;;66.83;27.63;;;;;;;;;;5058903;28;20036;-84
2022/12/17 22:51:09;;;;;;;62.88;25.60;;;;;;;;;;5087929;28;20041;-84
2022/12/17 22:53:35;;;;;;;60.53;26.23;;;;;;;;;;5059214;28;20059;-84
2022/12/17 22:56:04;;;;;;;96.30;31.33;;;;;;;;;;5049973;28;20522;-84
2022/12/17 22:58:29;;;;;;;74.90;27.38;;;;;;;;;;5082418;28;20036;-84
2022/12/17 23:00:54;;;;;;;60.25;25.58;;;;;;;;;;5054976;28;20608;-84
2022/12/17 23:03:19;;;;;;;63.10;26.17;;;;;;;;;;5052016;28;20044;-84
2022/12/17 23:05:44;;;;;;;67.57;26.50;;;;;;;;;;5048736;28;20067;-84
2022/12/17 23:08:10;;;;;;;61.90;25.73;;;;;;;;;;5049237;28;20033;-84
2022/12/17 23:10:35;;;;;;;63.67;26.20;;;;;;;;;;5047059;28;20044;-85
2022/12/17 23:13:00;;;;;;;62.53;25.30;;;;;;;;;;5046894;28;20076;-84
2022/12/17 23:15:28;;;;;;;50.78;21.33;;;;;;;;;;5048985;28;20545;-84
2022/12/17 23:17:54;;;;;;;54.92;23.48;;;;;;;;;;5047996;28;20033;-84
2022/12/17 23:20:20;;;;;;;59.17;26.55;;;;;;;;;;5059972;28;20032;-83
2022/12/17 23:22:45;;;;;;;55.92;24.10;;;;;;;;;;5067668;28;20040;-84
2022/12/17 23:25:10;;;;;;;50.35;23.00;;;;;;;;;;5064489;28;20044;-84
2022/12/17 23:27:36;;;;;;;50.10;22.30;;;;;;;;;;5048386;28;20762;-83
2022/12/17 23:30:01;;;;;;;57.20;23.50;;;;;;;;;;5048708;28;20041;-84
2022/12/17 23:32:26;;;;;;;48.75;22.27;;;;;;;;;;5049553;28;20037;-84
2022/12/17 23:34:51;;;;;;;65.27;24.63;;;;;;;;;;5064443;28;20148;-85
2022/12/17 23:37:17;;;;;;;48.80;20.48;;;;;;;;;;5080581;28;20288;-84
2022/12/17 23:39:42;;;;;;;46.37;19.77;;;;;;;;;;5046014;28;20554;-84
2022/12/17 23:42:07;;;;;;;46.00;19.70;;;;;;;;;;5049897;28;20044;-86
2022/12/17 23:44:32;;;;;;;53.23;20.93;;;;;;;;;;5058904;28;20060;-83
2022/12/17 23:46:57;;;;;;;66.97;24.93;;;;;;;22.38;100.00;120240.81;5048392;28;20307;-84
2022/12/17 23:49:23;;;;;;;50.60;22.65;;;;;;;;;;5052088;28;20029;-84
2022/12/17 23:51:48;;;;;;;54.70;22.57;;;;;;;;;;5055896;28;20037;-83
2022/12/17 23:54:13;;;;;;;54.75;24.33;;;;;;;;;;5056622;28;20288;-85
2022/12/17 23:56:38;;;;;;;59.23;25.47;;;;;;;;;;5057603;28;20159;-85
2022/12/17 23:59:04;;;;;;;59.70;24.27;;;;;;;22.38;100.00;120354.81;5053722;28;20317;-84
